createdAt,value
2023-04-15T00:00:57.549Z,100643.81
2023-04-15T00:03:29.012Z,100641.84
2023-04-15T00:05:56.348Z,100647.34
2023-04-15T00:08:23.225Z,100644.41
2023-04-15T00:10:51.011Z,100643.88
2023-04-15T00:13:17.602Z,100647.63
2023-04-15T00:15:47.402Z,100643.72
2023-04-15T00:18:16.937Z,100644.16
2023-04-15T00:20:43.893Z,100648.03
2023-04-15T00:23:10.422Z,100647.56
2023-04-15T00:25:37.017Z,100652.16
2023-04-15T00:28:04.185Z,100654.28
2023-04-15T00:30:31.685Z,100646.97
2023-04-15T00:32:58.304Z,100640.47
2023-04-15T00:35:25.551Z,100644.19
2023-04-15T00:37:52.165Z,100644.63
2023-04-15T00:40:22.276Z,100648.34
2023-04-15T00:42:48.832Z,100650.59
2023-04-15T00:45:15.857Z,100658.13
2023-04-15T00:47:44.209Z,100658.06
2023-04-15T00:50:15.160Z,100657.41
2023-04-15T00:52:41.910Z,100658.81
2023-04-15T00:55:09.492Z,100664.44
2023-04-15T00:57:36.490Z,100664.06
2023-04-15T01:00:08.021Z,100654.19
2023-04-15T01:02:36.561Z,100658.03
2023-04-15T01:05:04.542Z,100660.13
2023-04-15T01:07:31.952Z,100651.03
2023-04-15T01:09:59.540Z,100657.34
2023-04-15T01:12:29.671Z,100651.66
2023-04-15T01:14:57.334Z,100656.44
2023-04-15T01:17:25.628Z,100658.53
2023-04-15T01:19:52.896Z,100657.22
2023-04-15T01:22:21.856Z,100650.56
2023-04-15T01:25:02.096Z,100650.84
2023-04-15T01:27:28.774Z,100655.47
2023-04-15T01:29:55.346Z,100653.06
2023-04-15T01:32:21.924Z,100645.63
2023-04-15T01:34:49.422Z,100645.28
2023-04-15T01:37:16.338Z,100651.81
2023-04-15T01:39:43.388Z,100655.66
2023-04-15T01:42:09.992Z,100655.94
2023-04-15T01:44:38.802Z,100662.06
2023-04-15T01:47:05.694Z,100655.56
2023-04-15T01:49:34.871Z,100659.09
2023-04-15T01:52:01.529Z,100663.59
2023-04-15T01:54:46.711Z,100665.13
2023-04-15T01:57:13.387Z,100658.50
2023-04-15T01:59:41.163Z,100658.94
2023-04-15T02:02:07.930Z,100658.41
2023-04-15T02:04:53.708Z,100659.50
2023-04-15T02:07:20.284Z,100657.88
2023-04-15T02:09:46.807Z,100660.75
2023-04-15T02:12:13.712Z,100660.09
2023-04-15T02:14:43.054Z,100663.25
2023-04-15T02:17:09.569Z,100662.56
2023-04-15T02:19:37.707Z,100660.41
2023-04-15T02:22:04.262Z,100659.91
2023-04-15T02:24:31.241Z,100663.72
2023-04-15T02:26:58.926Z,100661.25
2023-04-15T02:29:32.819Z,100674.44
2023-04-15T02:31:59.419Z,100673.78
2023-04-15T02:34:27.724Z,100666.34
2023-04-15T02:36:57.281Z,100679.38
2023-04-15T02:39:25.645Z,100682.22
2023-04-15T02:41:56.229Z,100686.03
2023-04-15T02:44:41.639Z,100682.47
2023-04-15T02:47:08.463Z,100690.38
2023-04-15T02:49:35.920Z,100700.13
2023-04-15T02:52:02.480Z,100704.59
2023-04-15T02:54:31.044Z,100698.94
2023-04-15T02:56:57.555Z,100704.22
2023-04-15T02:59:26.013Z,100704.50
2023-04-15T03:01:52.779Z,100709.00
2023-04-15T03:04:23.008Z,100710.88
2023-04-15T03:06:49.556Z,100710.19
2023-04-15T03:09:16.528Z,100712.09
2023-04-15T03:11:43.068Z,100716.44
2023-04-15T03:14:09.640Z,100714.00
2023-04-15T03:16:37.337Z,100721.22
2023-04-15T03:19:04.277Z,100720.38
2023-04-15T03:21:30.940Z,100722.00
2023-04-15T03:23:57.698Z,100724.19
2023-04-15T03:26:31.811Z,100722.56
2023-04-15T03:28:58.777Z,100732.03
2023-04-15T03:31:44.488Z,100735.44
2023-04-15T03:34:11.105Z,100727.03
2023-04-15T03:36:38.739Z,100725.28
2023-04-15T03:39:05.601Z,100726.38
2023-04-15T03:41:33.037Z,100724.72
2023-04-15T03:43:59.825Z,100729.88
2023-04-15T03:46:28.720Z,100726.88
2023-04-15T03:48:55.426Z,100735.69
2023-04-15T03:51:24.008Z,100743.41
2023-04-15T03:53:50.598Z,100741.63
2023-04-15T03:56:17.292Z,100750.72
2023-04-15T03:58:43.896Z,100749.78
2023-04-15T04:01:13.633Z,100750.19
2023-04-15T04:03:40.287Z,100753.72
2023-04-15T04:06:09.196Z,100756.41
2023-04-15T04:08:35.776Z,100761.84
2023-04-15T04:11:05.422Z,100763.84
2023-04-15T04:13:32.066Z,100771.72
2023-04-15T04:15:59.341Z,100772.53
2023-04-15T04:18:25.978Z,100776.97
2023-04-15T04:20:53.455Z,100783.25
2023-04-15T04:23:20.273Z,100778.88
2023-04-15T04:25:49.590Z,100774.03
2023-04-15T04:28:16.085Z,100781.19
2023-04-15T04:30:42.803Z,100779.84
2023-04-15T04:33:09.525Z,100776.59
2023-04-15T04:35:37.680Z,100777.50
2023-04-15T04:38:04.699Z,100777.66
2023-04-15T04:40:31.354Z,100775.09
2023-04-15T04:42:57.942Z,100776.97
2023-04-15T04:45:43.273Z,100780.50
2023-04-15T04:48:10.625Z,100783.34
2023-04-15T04:50:56.024Z,100785.91
2023-04-15T04:53:22.788Z,100782.63
2023-04-15T04:55:49.360Z,100783.59
2023-04-15T04:58:15.899Z,100788.50
2023-04-15T05:00:42.849Z,100783.47
2023-04-15T05:03:09.776Z,100789.16
2023-04-15T05:05:39.409Z,100795.09
2023-04-15T05:08:07.374Z,100792.41
2023-04-15T05:10:34.050Z,100801.88
2023-04-15T05:13:00.649Z,100799.84
2023-04-15T05:15:27.152Z,100797.69
2023-04-15T05:17:55.592Z,100804.91
2023-04-15T05:20:22.366Z,100806.25
2023-04-15T05:22:49.650Z,100811.41
2023-04-15T05:25:17.267Z,100816.41
2023-04-15T05:27:44.039Z,100825.50
2023-04-15T05:30:12.742Z,100820.88
2023-04-15T05:32:40.990Z,100832.66
2023-04-15T05:35:08.578Z,100830.91
2023-04-15T05:37:35.834Z,100836.59
2023-04-15T05:40:02.351Z,100833.19
2023-04-15T05:42:34.976Z,100836.09
2023-04-15T05:45:01.623Z,100843.44
2023-04-15T05:47:31.716Z,100849.78
2023-04-15T05:50:00.617Z,100856.44
2023-04-15T05:52:27.890Z,100861.84
2023-04-15T05:54:54.455Z,100859.00
2023-04-15T05:57:21.962Z,100862.00
2023-04-15T05:59:49.125Z,100870.66
2023-04-15T06:02:16.508Z,100870.00
2023-04-15T06:04:43.829Z,100868.50
2023-04-15T06:07:10.705Z,100874.31
2023-04-15T06:09:37.292Z,100874.03
2023-04-15T06:12:22.504Z,100877.25
2023-04-15T06:14:51.178Z,100874.09
2023-04-15T06:17:19.524Z,100885.78
2023-04-15T06:19:46.103Z,100886.13
2023-04-15T06:22:13.474Z,100884.50
2023-04-15T06:24:40.252Z,100888.25
2023-04-15T06:27:07.612Z,100882.91
2023-04-15T06:29:34.413Z,100890.75
2023-04-15T06:32:01.008Z,100889.00
2023-04-15T06:34:30.387Z,100883.41
2023-04-15T06:36:57.676Z,100892.31
2023-04-15T06:39:24.313Z,100890.41
2023-04-15T06:41:52.396Z,100886.44
2023-04-15T06:44:19.156Z,100893.75
2023-04-15T06:46:45.744Z,100897.53
2023-04-15T06:49:12.347Z,100891.41
2023-04-15T06:51:38.932Z,100900.47
2023-04-15T06:54:06.345Z,100898.94
2023-04-15T06:56:54.791Z,100898.94
2023-04-15T06:59:21.336Z,100898.28
2023-04-15T07:01:53.695Z,100905.16
2023-04-15T07:04:20.854Z,100906.13
2023-04-15T07:06:47.479Z,100912.63
2023-04-15T07:09:16.352Z,100909.16
2023-04-15T07:11:42.898Z,100909.66
2023-04-15T07:14:09.468Z,100907.34
2023-04-15T07:16:36.185Z,100911.47
2023-04-15T07:19:04.416Z,100913.75
2023-04-15T07:21:31.296Z,100921.06
2023-04-15T07:23:58.792Z,100926.91
2023-04-15T07:26:25.551Z,100927.00
2023-04-15T07:28:52.828Z,100927.97
2023-04-15T07:31:22.370Z,100937.88
2023-04-15T07:33:49.710Z,100938.38
2023-04-15T07:36:16.306Z,100938.16
2023-04-15T07:38:47.552Z,100936.44
2023-04-15T07:41:14.283Z,100939.41
2023-04-15T07:43:41.250Z,100939.28
2023-04-15T07:46:07.854Z,100947.03
2023-04-15T07:48:35.555Z,100948.63
2023-04-15T07:51:03.639Z,100953.97
2023-04-15T07:53:33.177Z,100950.28
2023-04-15T07:55:59.790Z,100949.44
2023-04-15T07:58:26.422Z,100951.22
2023-04-15T08:01:11.856Z,100956.31
2023-04-15T08:03:40.117Z,100956.03
2023-04-15T08:06:08.588Z,100961.03
2023-04-15T08:08:35.181Z,100964.44
2023-04-15T08:11:02.445Z,100963.34
2023-04-15T08:13:29.089Z,100962.06
2023-04-15T08:16:15.318Z,100965.38
2023-04-15T08:18:43.318Z,100970.13
2023-04-15T08:21:12.047Z,100972.91
2023-04-15T08:23:39.388Z,100976.16
2023-04-15T08:26:08.420Z,100978.91
2023-04-15T08:28:35.147Z,100977.31
2023-04-15T08:31:04.014Z,100979.00
2023-04-15T08:33:30.793Z,100976.47
2023-04-15T08:35:59.964Z,100979.03
2023-04-15T08:38:26.650Z,100983.03
2023-04-15T08:40:53.260Z,100978.41
2023-04-15T08:43:28.502Z,100977.84
2023-04-15T08:45:55.897Z,100982.59
2023-04-15T08:48:24.592Z,100990.75
2023-04-15T08:51:10.973Z,100982.53
2023-04-15T08:53:37.749Z,100987.09
2023-04-15T08:56:12.559Z,100991.78
2023-04-15T08:58:39.179Z,100990.22
2023-04-15T09:01:08.977Z,100999.16
2023-04-15T09:03:39.125Z,100990.91
2023-04-15T09:06:06.984Z,101002.13
2023-04-15T09:08:35.869Z,101011.47
2023-04-15T09:11:04.235Z,101000.81
2023-04-15T09:13:34.864Z,101003.88
2023-04-15T09:16:06.289Z,101009.06
2023-04-15T09:18:36.929Z,101013.94
2023-04-15T09:21:13.430Z,101014.75
2023-04-15T09:23:41.868Z,101023.78
2023-04-15T09:26:31.110Z,101026.72
2023-04-15T09:29:07.501Z,101025.91
2023-04-15T09:31:34.405Z,101023.13
2023-04-15T09:34:01.270Z,101018.97
2023-04-15T09:36:31.663Z,101029.03
2023-04-15T09:39:02.752Z,101028.59
2023-04-15T09:41:29.323Z,101022.94
2023-04-15T09:43:57.206Z,101035.94
2023-04-15T09:46:45.543Z,101034.81
2023-04-15T09:49:13.489Z,101041.59
2023-04-15T09:51:40.201Z,101041.81
2023-04-15T09:54:07.454Z,101035.47
2023-04-15T09:56:52.934Z,101036.63
2023-04-15T09:59:20.213Z,101034.06
2023-04-15T10:01:48.090Z,101041.84
2023-04-15T10:04:16.976Z,101045.72
2023-04-15T10:06:44.005Z,101051.09
2023-04-15T10:09:10.771Z,101048.66
2023-04-15T10:11:37.746Z,101056.44
2023-04-15T10:14:05.115Z,101045.75
2023-04-15T10:16:32.921Z,101046.09
2023-04-15T10:19:02.242Z,101050.31
2023-04-15T10:21:30.834Z,101048.69
2023-04-15T10:23:58.607Z,101050.78
2023-04-15T10:26:25.324Z,101048.84
2023-04-15T10:28:56.027Z,101050.00
2023-04-15T10:31:25.786Z,101065.25
2023-04-15T10:33:53.514Z,101058.59
2023-04-15T10:36:20.980Z,101065.38
2023-04-15T10:38:47.704Z,101055.19
2023-04-15T10:41:16.631Z,101070.09
2023-04-15T10:43:53.714Z,101067.00
2023-04-15T10:46:23.992Z,101067.84
2023-04-15T10:48:53.264Z,101065.88
2023-04-15T10:51:28.969Z,101069.63
2023-04-15T10:54:00.021Z,101060.69
2023-04-15T10:56:28.836Z,101070.25
2023-04-15T10:59:16.327Z,101061.19
2023-04-15T11:02:01.522Z,101072.88
2023-04-15T11:04:59.996Z,101075.94
2023-04-15T11:07:44.695Z,101075.63
2023-04-15T11:10:14.094Z,101074.66
2023-04-15T11:12:45.435Z,101080.50
2023-04-15T11:18:30.754Z,101077.41
2023-04-15T11:21:00.411Z,101078.22
2023-04-15T11:23:41.279Z,101087.78
2023-04-15T11:26:11.979Z,101096.06
2023-04-15T11:28:43.348Z,101099.00
2023-04-15T11:31:15.536Z,101096.53
2023-04-15T11:34:02.350Z,101093.81
2023-04-15T11:36:31.875Z,101104.00
2023-04-15T11:39:00.540Z,101108.41
2023-04-15T11:41:27.336Z,101109.03
2023-04-15T11:43:54.309Z,101111.63
2023-04-15T11:46:22.044Z,101104.19
2023-04-15T11:48:48.754Z,101113.28
2023-04-15T11:51:15.612Z,101103.38
2023-04-15T11:53:47.578Z,101103.06
2023-04-15T11:56:20.293Z,101108.25
2023-04-15T11:58:48.274Z,101108.25
2023-04-15T12:01:14.807Z,101112.63
2023-04-15T12:03:44.096Z,101130.78
2023-04-15T12:06:17.095Z,101121.88
2023-04-15T12:08:55.427Z,101125.13
2023-04-15T12:11:47.671Z,101121.41
2023-04-15T12:14:31.582Z,101124.94
2023-04-15T12:17:02.423Z,101132.75
2023-04-15T12:23:10.587Z,101143.91
2023-04-15T12:26:33.380Z,101148.31
2023-04-15T12:33:22.606Z,101154.47
2023-04-15T12:39:35.581Z,101175.06
2023-04-15T12:45:11.493Z,101168.91
2023-04-15T12:47:38.174Z,101181.94
2023-04-15T12:53:45.249Z,101178.19
2023-04-15T12:56:11.761Z,101183.88
2023-04-15T12:59:34.898Z,101184.38
2023-04-15T13:06:08.250Z,101199.13
2023-04-15T13:08:38.400Z,101188.59
2023-04-15T13:12:03.582Z,101195.38
2023-04-15T13:14:30.109Z,101195.72
2023-04-15T13:17:34.222Z,101194.91
2023-04-15T13:23:10.037Z,101210.66
2023-04-15T13:28:27.414Z,101195.88
2023-04-15T13:30:53.995Z,101208.84
2023-04-15T13:33:20.907Z,101206.44
2023-04-15T13:35:50.484Z,101210.31
2023-04-15T13:38:17.042Z,101214.03
2023-04-15T13:40:43.618Z,101213.41
2023-04-15T13:43:11.784Z,101216.31
2023-04-15T13:48:48.387Z,101220.50
2023-04-15T13:51:15.084Z,101226.63
2023-04-15T13:57:29.527Z,101235.53
2023-04-15T13:59:56.136Z,101243.28
2023-04-15T14:06:29.027Z,101245.97
2023-04-15T14:08:55.648Z,101240.94
2023-04-15T14:11:22.214Z,101245.16
2023-04-15T14:14:07.741Z,101243.38
2023-04-15T14:16:34.765Z,101253.75
2023-04-15T14:19:20.225Z,101248.09
2023-04-15T14:21:46.864Z,101263.00
2023-04-15T14:24:14.086Z,101263.31
2023-04-15T14:26:40.733Z,101265.63
2023-04-15T14:29:28.191Z,101269.19
2023-04-15T14:32:04.461Z,101267.19
2023-04-15T14:34:43.655Z,101263.66
2023-04-15T14:40:06.183Z,101283.75
2023-04-15T14:42:51.479Z,101273.84
2023-04-15T14:45:18.480Z,101278.69
2023-04-15T14:47:45.712Z,101276.44
2023-04-15T14:50:12.396Z,101284.88
2023-04-15T14:59:18.568Z,101295.84
2023-04-15T15:01:45.178Z,101294.81
2023-04-15T15:11:39.552Z,101303.22
2023-04-15T15:15:05.013Z,101309.81
2023-04-15T15:17:49.296Z,101315.31
2023-04-15T15:20:17.046Z,101315.44
2023-04-15T15:22:43.587Z,101314.50
2023-04-15T15:25:29.034Z,101317.25
2023-04-15T15:27:56.256Z,101331.16
2023-04-15T15:30:22.924Z,101331.31
2023-04-15T15:32:53.219Z,101335.19
2023-04-15T15:35:22.302Z,101344.19
2023-04-15T15:37:48.837Z,101345.59
2023-04-15T15:40:19.188Z,101347.53
2023-04-15T15:42:47.448Z,101352.03
2023-04-15T15:45:15.723Z,101353.16
2023-04-15T15:47:43.474Z,101355.88
2023-04-15T15:50:28.541Z,101365.97
2023-04-15T15:52:55.513Z,101366.41
2023-04-15T15:55:22.143Z,101364.09
2023-04-15T15:57:49.874Z,101369.28
2023-04-15T16:00:16.703Z,101366.19
2023-04-15T16:05:36.096Z,101383.13
2023-04-15T16:08:02.789Z,101376.69
2023-04-15T16:10:33.396Z,101376.84
2023-04-15T16:13:00.116Z,101371.94
2023-04-15T16:15:27.778Z,101379.22
2023-04-15T16:17:54.457Z,101380.81
2023-04-15T16:20:22.203Z,101388.38
2023-04-15T16:22:48.898Z,101384.44
2023-04-15T16:25:16.269Z,101387.84
2023-04-15T16:27:58.934Z,101389.47
2023-04-15T16:30:30.378Z,101391.63
2023-04-15T16:33:00.351Z,101395.47
2023-04-15T16:35:27.021Z,101393.47
2023-04-15T16:37:53.573Z,101394.41
2023-04-15T16:40:20.158Z,101393.91
2023-04-15T16:42:46.793Z,101393.25
2023-04-15T16:45:13.435Z,101398.44
2023-04-15T16:47:41.199Z,101404.84
2023-04-15T16:50:08.600Z,101412.91
2023-04-15T16:52:54.211Z,101416.28
2023-04-15T16:55:26.511Z,101413.84
2023-04-15T16:58:02.062Z,101406.25
2023-04-15T17:00:31.795Z,101416.72
2023-04-15T17:03:01.455Z,101423.41
2023-04-15T17:05:29.187Z,101422.06
2023-04-15T17:07:55.943Z,101424.81
2023-04-15T17:10:24.083Z,101419.75
2023-04-15T17:12:52.251Z,101423.00
2023-04-15T17:15:20.122Z,101433.38
2023-04-15T17:17:46.798Z,101439.94
2023-04-15T17:20:13.472Z,101448.81
2023-04-15T17:22:40.260Z,101442.97
2023-04-15T17:25:09.994Z,101446.50
2023-04-15T17:27:38.639Z,101451.84
2023-04-15T17:30:07.198Z,101450.19
2023-04-15T17:32:34.915Z,101457.16
2023-04-15T17:35:06.036Z,101459.88
2023-04-15T17:37:35.369Z,101456.34
2023-04-15T17:40:23.431Z,101460.84
2023-04-15T17:42:50.105Z,101468.88
2023-04-15T17:45:16.694Z,101469.16
2023-04-15T17:47:43.445Z,101473.53
2023-04-15T17:50:10.855Z,101469.47
2023-04-15T17:52:37.481Z,101479.53
2023-04-15T17:55:04.511Z,101474.78
2023-04-15T18:00:21.436Z,101485.00
2023-04-15T18:02:48.752Z,101483.38
2023-04-15T18:05:15.796Z,101492.09
2023-04-15T18:07:42.473Z,101487.88
2023-04-15T18:10:10.345Z,101502.56
2023-04-15T18:12:36.892Z,101502.19
2023-04-15T18:15:04.988Z,101503.97
2023-04-15T18:17:36.068Z,101492.78
2023-04-15T18:20:02.949Z,101493.88
2023-04-15T18:22:29.529Z,101503.41
2023-04-15T18:25:02.828Z,101507.75
2023-04-15T18:27:31.109Z,101513.91
2023-04-15T18:30:16.244Z,101517.44
2023-04-15T18:32:43.216Z,101527.00
2023-04-15T18:35:10.014Z,101533.38
2023-04-15T18:37:36.678Z,101532.44
2023-04-15T18:40:03.907Z,101535.97
2023-04-15T18:42:30.558Z,101546.59
2023-04-15T18:45:15.761Z,101547.41
2023-04-15T18:47:42.360Z,101548.22
2023-04-15T18:50:09.054Z,101550.94
2023-04-15T18:52:35.750Z,101566.47
2023-04-15T18:55:03.436Z,101569.88
2023-04-15T18:57:35.265Z,101570.00
2023-04-15T19:00:11.323Z,101567.31
2023-04-15T19:02:38.052Z,101579.41
2023-04-15T19:05:10.759Z,101580.66
2023-04-15T19:07:37.540Z,101581.19
2023-04-15T19:10:23.369Z,101588.53
2023-04-15T19:12:51.838Z,101585.69
2023-04-15T19:15:20.411Z,101590.16
2023-04-15T19:17:46.998Z,101601.06
2023-04-15T19:20:13.781Z,101607.19
2023-04-15T19:22:40.582Z,101607.72
2023-04-15T19:25:07.725Z,101603.78
2023-04-15T19:27:34.578Z,101616.47
2023-04-15T19:30:01.970Z,101609.91
2023-04-15T19:32:28.632Z,101617.66
2023-04-15T19:37:47.729Z,101620.13
2023-04-15T19:40:14.473Z,101631.56
2023-04-15T19:42:42.841Z,101627.47
2023-04-15T19:45:09.815Z,101635.25
2023-04-15T19:47:36.873Z,101629.38
2023-04-15T19:50:06.163Z,101642.03
2023-04-15T19:52:34.212Z,101630.88
2023-04-15T19:55:00.873Z,101639.44
2023-04-15T19:57:27.594Z,101638.50
2023-04-15T19:59:54.237Z,101630.75
2023-04-15T20:02:39.555Z,101634.84
2023-04-15T20:05:09.816Z,101630.75
2023-04-15T20:07:36.710Z,101633.34
2023-04-15T20:10:12.370Z,101628.97
2023-04-15T20:12:50.509Z,101633.06
2023-04-15T20:15:23.881Z,101634.97
2023-04-15T20:17:50.887Z,101628.84
2023-04-15T20:20:17.614Z,101632.41
2023-04-15T20:22:44.325Z,101626.41
2023-04-15T20:25:11.275Z,101630.88
2023-04-15T20:28:00.400Z,101631.69
2023-04-15T20:30:28.905Z,101620.53
2023-04-15T20:32:57.851Z,101630.75
2023-04-15T20:35:28.049Z,101621.34
2023-04-15T20:37:54.837Z,101625.56
2023-04-15T20:40:21.710Z,101622.97
2023-04-15T20:42:48.356Z,101634.66
2023-04-15T20:45:15.171Z,101633.88
2023-04-15T20:47:42.103Z,101626.78
2023-04-15T20:50:09.577Z,101633.06
2023-04-15T20:52:36.183Z,101628.69
2023-04-15T20:55:02.780Z,101628.69
2023-04-15T20:57:30.256Z,101636.31
2023-04-15T20:59:56.963Z,101643.00
2023-04-15T21:02:24.366Z,101650.63
2023-04-15T21:04:51.087Z,101644.63
2023-04-15T21:07:18.327Z,101646.94
2023-04-15T21:09:44.936Z,101645.72
2023-04-15T21:12:29.997Z,101646.41
2023-04-15T21:14:56.613Z,101646.41
2023-04-15T21:17:24.055Z,101643.81
2023-04-15T21:19:50.924Z,101647.91
2023-04-15T21:22:17.482Z,101648.72
2023-04-15T21:24:44.084Z,101646.84
2023-04-15T21:27:11.069Z,101650.50
2023-04-15T21:29:40.353Z,101653.88
2023-04-15T21:32:07.588Z,101652.69
2023-04-15T21:34:34.611Z,101658.94
2023-04-15T21:37:01.304Z,101664.38
2023-04-15T21:39:28.202Z,101662.72
2023-04-15T21:41:54.952Z,101663.56
2023-04-15T21:44:40.352Z,101671.31
2023-04-15T21:47:10.020Z,101671.19
2023-04-15T21:49:37.392Z,101678.97
2023-04-15T21:52:04.654Z,101685.06
2023-04-15T21:54:31.387Z,101692.84
2023-04-15T21:56:57.980Z,101692.16
2023-04-15T21:59:24.584Z,101702.38
2023-04-15T22:01:52.034Z,101699.66
2023-04-15T22:04:18.767Z,101703.88
2023-04-15T22:06:45.730Z,101707.28
2023-04-15T22:09:14.164Z,101703.31
2023-04-15T22:11:43.482Z,101702.50
2023-04-15T22:14:10.073Z,101713.53
2023-04-15T22:16:36.672Z,101703.44
2023-04-15T22:19:03.314Z,101706.72
2023-04-15T22:21:30.678Z,101706.03
2023-04-15T22:24:38.977Z,101713.78
2023-04-15T22:26:43.894Z,101711.19
2023-04-15T22:29:29.083Z,101713.53
2023-04-15T22:31:55.886Z,101706.03
2023-04-15T22:34:22.496Z,101707.69
2023-04-15T22:36:50.144Z,101705.09
2023-04-15T22:39:22.609Z,101711.78
2023-04-15T22:41:49.697Z,101712.72
2023-04-15T22:44:16.309Z,101712.03
2023-04-15T22:46:43.209Z,101709.19
2023-04-15T22:49:10.551Z,101721.28
2023-04-15T22:51:38.152Z,101718.03
2023-04-15T22:54:07.276Z,101718.16
2023-04-15T22:56:33.959Z,101724.81
2023-04-15T22:59:03.254Z,101721.44
2023-04-15T23:01:31.891Z,101721.56
2023-04-15T23:04:07.028Z,101727.41
2023-04-15T23:06:38.582Z,101732.47
2023-04-15T23:09:08.278Z,101739.16
2023-04-15T23:11:36.496Z,101733.16
2023-04-15T23:14:03.088Z,101745.41
2023-04-15T23:16:29.777Z,101736.69
2023-04-15T23:18:56.442Z,101730.72
2023-04-15T23:21:25.900Z,101734.09
2023-04-15T23:23:52.841Z,101727.41
2023-04-15T23:26:19.679Z,101739.25
2023-04-15T23:28:46.247Z,101744.44
2023-04-15T23:31:13.848Z,101749.63
2023-04-15T23:33:40.508Z,101756.44
2023-04-15T23:36:08.923Z,101747.59
2023-04-15T23:38:35.751Z,101752.91
2023-04-15T23:41:02.298Z,101749.38
2023-04-15T23:43:28.867Z,101747.47
2023-04-15T23:45:55.672Z,101745.56
2023-04-15T23:48:23.696Z,101742.44
2023-04-15T23:51:09.241Z,101744.88
2023-04-15T23:53:37.883Z,101749.09
2023-04-15T23:56:04.755Z,101745.56
2023-04-15T23:58:33.436Z,101750.47
